Avery, Arkansas
Current Conditions -  °F | °C
As of 3:53 PM on Monday 26 Jan 2015 (Local Time) from KLLQ Reporting Station
Clear Clear  
Wind Chill: 57°   Ceiling: Unl
Heat Index: 57°   Visibility: 10mi
Dew Point: 32°   Wind: 8mph
Humidity: 39%   Direction: 250°WSW
Pressure: 30.01"   Gusts: NA
Location:  33.9283°N, 91.468°W
Report Text: KLLQ 262153Z AUTO 25007KT 10SM CLR 14/00 A3001 RMK AO2 SLP162 T01390000
Loading
Personal Weather Stations






























Interactive Weather Map New forecast layout! Learn more

10-Day Weather Forecast

Advertisements
Track Severe Weather on mobile